createdAt,value
2017-05-30T00:00:00.500Z,0
2017-05-30T00:01:01.196Z,0
2017-05-30T00:02:01.897Z,0
2017-05-30T00:03:02.570Z,0
2017-05-30T00:04:03.247Z,0
2017-05-30T00:05:03.909Z,0
2017-05-30T00:06:04.584Z,0
2017-05-30T00:07:05.256Z,0
2017-05-30T00:08:05.923Z,0
2017-05-30T00:09:06.587Z,0
2017-05-30T00:10:07.260Z,0
2017-05-30T00:11:07.956Z,0
2017-05-30T00:12:08.616Z,0
2017-05-30T00:13:09.274Z,0
2017-05-30T00:14:09.938Z,0
2017-05-30T00:15:10.600Z,0
2017-05-30T00:16:11.270Z,0
2017-05-30T00:17:11.931Z,0
2017-05-30T00:18:12.598Z,0
2017-05-30T00:19:13.277Z,0
2017-05-30T00:20:13.957Z,0
2017-05-30T00:21:14.637Z,0
2017-05-30T00:22:15.299Z,0
2017-05-30T00:23:15.975Z,0
2017-05-30T00:24:16.644Z,0
2017-05-30T00:25:17.308Z,0
2017-05-30T00:26:17.985Z,0
2017-05-30T00:27:18.652Z,0
2017-05-30T00:28:19.310Z,0
2017-05-30T00:29:19.998Z,0
2017-05-30T00:30:20.681Z,0
2017-05-30T00:31:21.347Z,0
2017-05-30T00:32:22.054Z,0
2017-05-30T00:33:22.717Z,0
2017-05-30T00:34:23.408Z,0
2017-05-30T00:35:24.074Z,0
2017-05-30T00:36:24.756Z,0
2017-05-30T00:37:25.445Z,0
2017-05-30T00:38:26.111Z,0
2017-05-30T00:39:26.793Z,0
2017-05-30T00:40:27.516Z,0
2017-05-30T00:41:28.196Z,0
2017-05-30T00:42:28.865Z,0
2017-05-30T00:43:29.559Z,0
2017-05-30T00:44:30.231Z,0
2017-05-30T00:45:30.914Z,0
2017-05-30T00:46:31.575Z,0
2017-05-30T00:47:32.238Z,0
2017-05-30T00:48:32.905Z,0
2017-05-30T00:49:33.571Z,0
2017-05-30T00:50:34.252Z,0
2017-05-30T00:51:34.919Z,0
2017-05-30T00:52:35.588Z,0
2017-05-30T00:53:36.274Z,0
2017-05-30T00:54:36.934Z,0
2017-05-30T00:55:37.621Z,0
2017-05-30T00:56:38.280Z,0
2017-05-30T00:57:38.953Z,0
2017-05-30T00:58:39.619Z,0
2017-05-30T00:59:40.286Z,0
2017-05-30T01:00:40.973Z,0
2017-05-30T01:01:41.650Z,0
2017-05-30T01:02:42.312Z,0
2017-05-30T01:03:42.990Z,0
2017-05-30T01:04:43.658Z,0
2017-05-30T01:05:44.345Z,0
2017-05-30T01:06:45.018Z,0
2017-05-30T01:07:45.695Z,0
2017-05-30T01:08:46.418Z,0
2017-05-30T01:09:47.045Z,0
2017-05-30T01:10:47.715Z,0
2017-05-30T01:11:48.380Z,0
2017-05-30T01:12:49.058Z,0
2017-05-30T01:13:49.718Z,0
2017-05-30T01:14:50.396Z,0
2017-05-30T01:15:51.065Z,0
2017-05-30T01:16:51.733Z,0
2017-05-30T01:17:52.410Z,0
2017-05-30T01:18:53.083Z,0
2017-05-30T01:19:53.753Z,0
2017-05-30T01:20:54.427Z,0
2017-05-30T01:21:55.094Z,0
2017-05-30T01:22:55.751Z,0
2017-05-30T01:23:56.422Z,0
2017-05-30T01:24:57.121Z,0
2017-05-30T01:25:57.809Z,0
2017-05-30T01:26:58.493Z,0
2017-05-30T01:27:59.162Z,0
2017-05-30T01:28:59.836Z,0
2017-05-30T01:30:00.523Z,0
2017-05-30T01:31:01.195Z,0
2017-05-30T01:32:01.854Z,0
2017-05-30T01:33:02.517Z,0
2017-05-30T01:34:03.197Z,0
2017-05-30T01:35:03.856Z,0
2017-05-30T01:36:04.522Z,0
2017-05-30T01:37:05.211Z,0
2017-05-30T01:38:05.892Z,0
2017-05-30T01:39:06.563Z,0
2017-05-30T01:40:07.226Z,0
2017-05-30T01:41:07.907Z,0
2017-05-30T01:42:08.576Z,0
2017-05-30T01:43:09.239Z,0
2017-05-30T01:44:09.907Z,0
2017-05-30T01:45:10.591Z,0
2017-05-30T01:46:11.259Z,0
2017-05-30T01:47:11.926Z,0
2017-05-30T01:48:12.651Z,0
2017-05-30T01:49:13.340Z,0
2017-05-30T01:50:14.013Z,0
2017-05-30T01:51:14.681Z,0
2017-05-30T01:52:15.343Z,0
2017-05-30T01:53:16.018Z,0
2017-05-30T01:54:16.722Z,0
2017-05-30T01:55:17.398Z,0
2017-05-30T01:56:18.063Z,0
2017-05-30T01:57:18.734Z,0
2017-05-30T01:58:26.304Z,0
2017-05-30T01:59:26.977Z,0
2017-05-30T02:00:27.646Z,0
2017-05-30T02:01:28.323Z,0
2017-05-30T02:02:28.995Z,0
2017-05-30T02:03:29.666Z,0
2017-05-30T02:04:30.335Z,0
2017-05-30T02:05:31.007Z,0
2017-05-30T02:06:31.667Z,0
2017-05-30T02:07:32.329Z,0
2017-05-30T02:08:33.004Z,0
2017-05-30T02:09:33.667Z,0
2017-05-30T02:10:34.372Z,0
2017-05-30T02:11:35.046Z,0
2017-05-30T02:12:35.719Z,0
2017-05-30T02:13:36.380Z,0
2017-05-30T02:14:37.050Z,0
2017-05-30T02:15:37.712Z,0
2017-05-30T02:16:38.384Z,4
2017-05-30T02:17:39.119Z,4
2017-05-30T02:18:39.790Z,4
2017-05-30T02:19:40.465Z,4
2017-05-30T02:20:41.142Z,4
2017-05-30T02:21:41.814Z,0
2017-05-30T02:22:42.481Z,4
2017-05-30T02:23:43.136Z,4
2017-05-30T02:24:43.800Z,4
2017-05-30T02:25:44.526Z,4
2017-05-30T02:26:45.198Z,4
2017-05-30T02:27:45.864Z,8
2017-05-30T02:28:46.578Z,4
2017-05-30T02:29:47.261Z,8
2017-05-30T02:30:47.960Z,12
2017-05-30T02:31:48.629Z,8
2017-05-30T02:32:49.300Z,12
2017-05-30T02:33:49.953Z,12
2017-05-30T02:34:50.620Z,12
2017-05-30T02:35:51.293Z,16
2017-05-30T02:36:51.968Z,16
2017-05-30T02:37:52.638Z,20
2017-05-30T02:38:53.312Z,24
2017-05-30T02:39:53.979Z,24
2017-05-30T02:40:54.643Z,28
2017-05-30T02:41:55.322Z,28
2017-05-30T02:42:56.001Z,32
2017-05-30T02:43:56.654Z,36
2017-05-30T02:44:57.312Z,36
2017-05-30T02:45:57.977Z,40
2017-05-30T02:46:58.639Z,48
2017-05-30T02:47:59.311Z,48
2017-05-30T02:48:59.971Z,52
2017-05-30T02:50:00.647Z,60
2017-05-30T02:51:01.315Z,64
2017-05-30T02:52:02.001Z,68
2017-05-30T02:53:02.684Z,76
2017-05-30T02:54:03.350Z,80
2017-05-30T02:55:04.022Z,84
2017-05-30T02:56:04.690Z,92
2017-05-30T02:57:05.369Z,100
2017-05-30T02:58:06.039Z,108
2017-05-30T02:59:06.710Z,112
2017-05-30T03:00:07.363Z,120
2017-05-30T03:01:08.052Z,124
2017-05-30T03:02:08.719Z,136
2017-05-30T03:03:09.398Z,144
2017-05-30T03:04:10.086Z,152
2017-05-30T03:05:10.741Z,164
2017-05-30T03:06:11.423Z,172
2017-05-30T03:07:12.070Z,184
2017-05-30T03:08:12.761Z,196
2017-05-30T03:09:13.460Z,204
2017-05-30T03:10:14.145Z,220
2017-05-30T03:11:14.803Z,232
2017-05-30T03:12:15.503Z,244
2017-05-30T03:13:16.172Z,264
2017-05-30T03:14:16.850Z,280
2017-05-30T03:15:17.556Z,300
2017-05-30T03:16:18.226Z,320
2017-05-30T03:17:18.913Z,344
2017-05-30T03:18:19.593Z,368
2017-05-30T03:19:20.258Z,400
2017-05-30T03:20:20.933Z,432
2017-05-30T03:21:21.613Z,460
2017-05-30T03:22:22.281Z,488
2017-05-30T03:23:22.951Z,512
2017-05-30T03:24:23.611Z,548
2017-05-30T03:25:24.295Z,580
2017-05-30T03:26:24.974Z,624
2017-05-30T03:27:25.652Z,676
2017-05-30T03:28:26.347Z,728
2017-05-30T03:29:27.038Z,788
2017-05-30T03:30:27.754Z,852
2017-05-30T03:31:28.454Z,932
2017-05-30T03:32:29.119Z,1036
2017-05-30T03:33:29.782Z,1168
2017-05-30T03:34:30.466Z,1344
2017-05-30T03:35:31.125Z,1640
2017-05-30T03:36:31.826Z,2036
2017-05-30T03:37:32.502Z,2324
2017-05-30T03:38:33.173Z,2360
2017-05-30T03:39:33.928Z,1948
2017-05-30T03:40:34.599Z,1328
2017-05-30T03:41:35.270Z,872
2017-05-30T03:42:35.969Z,504
2017-05-30T03:43:36.644Z,368
2017-05-30T03:44:37.303Z,324
2017-05-30T03:45:37.967Z,336
2017-05-30T03:46:38.639Z,388
2017-05-30T03:47:39.300Z,472
2017-05-30T03:48:39.980Z,604
2017-05-30T03:49:40.648Z,652
2017-05-30T03:50:41.323Z,532
2017-05-30T03:51:41.996Z,436
2017-05-30T03:52:42.662Z,312
2017-05-30T03:53:43.341Z,236
2017-05-30T03:54:44.015Z,184
2017-05-30T03:55:44.678Z,128
2017-05-30T03:56:45.381Z,84
2017-05-30T03:57:46.064Z,64
2017-05-30T03:58:46.748Z,60
2017-05-30T03:59:47.428Z,64
2017-05-30T04:00:48.102Z,56
2017-05-30T04:01:48.792Z,60
2017-05-30T04:02:49.466Z,64
2017-05-30T04:03:50.130Z,60
2017-05-30T04:04:50.835Z,40
2017-05-30T04:05:51.516Z,36
2017-05-30T04:06:52.182Z,40
2017-05-30T04:07:52.866Z,36
2017-05-30T04:08:53.540Z,40
2017-05-30T04:09:54.215Z,44
2017-05-30T04:10:54.887Z,52
2017-05-30T04:11:55.561Z,68
2017-05-30T04:12:56.225Z,68
2017-05-30T04:13:56.886Z,76
2017-05-30T04:14:57.550Z,84
2017-05-30T04:15:58.219Z,88
2017-05-30T04:16:58.879Z,92
2017-05-30T04:17:59.552Z,100
2017-05-30T04:19:00.222Z,108
2017-05-30T04:20:00.894Z,116
2017-05-30T04:21:01.583Z,128
2017-05-30T04:22:02.242Z,140
2017-05-30T04:23:02.906Z,152
2017-05-30T04:24:03.582Z,164
2017-05-30T04:25:04.251Z,172
2017-05-30T04:26:04.926Z,180
2017-05-30T04:27:05.618Z,192
2017-05-30T04:28:06.300Z,204
2017-05-30T04:29:06.957Z,208
2017-05-30T04:30:07.644Z,220
2017-05-30T04:31:08.320Z,232
2017-05-30T04:32:09.017Z,236
2017-05-30T04:33:09.689Z,240
2017-05-30T04:34:10.354Z,248
2017-05-30T04:35:11.014Z,256
2017-05-30T04:36:11.742Z,260
2017-05-30T04:37:12.395Z,268
2017-05-30T04:38:13.054Z,276
2017-05-30T04:39:13.721Z,288
2017-05-30T04:40:14.387Z,292
2017-05-30T04:41:15.114Z,300
2017-05-30T04:42:15.787Z,312
2017-05-30T04:43:16.629Z,328
2017-05-30T04:44:17.355Z,344
2017-05-30T04:45:18.118Z,356
2017-05-30T04:46:18.826Z,372
2017-05-30T04:47:19.516Z,392
2017-05-30T04:48:20.900Z,404
2017-05-30T04:49:23.196Z,416
2017-05-30T04:50:25.641Z,432
2017-05-30T04:51:28.273Z,452
2017-05-30T04:52:30.581Z,468
2017-05-30T04:53:31.644Z,480
2017-05-30T04:54:32.369Z,500
2017-05-30T04:55:33.024Z,520
2017-05-30T04:56:33.693Z,536
2017-05-30T04:57:34.359Z,556
2017-05-30T04:58:35.028Z,572
2017-05-30T04:59:35.704Z,596
2017-05-30T05:00:36.429Z,624
2017-05-30T05:01:37.119Z,652
2017-05-30T05:02:37.797Z,680
2017-05-30T05:03:38.479Z,720
2017-05-30T05:04:39.149Z,764
2017-05-30T05:05:39.812Z,816
2017-05-30T05:06:40.480Z,876
2017-05-30T05:07:41.138Z,952
2017-05-30T05:08:41.805Z,1036
2017-05-30T05:09:42.477Z,1136
2017-05-30T05:10:43.232Z,1248
2017-05-30T05:11:43.902Z,1360
2017-05-30T05:12:44.616Z,1484
2017-05-30T05:13:45.279Z,1612
2017-05-30T05:14:45.944Z,1748
2017-05-30T05:15:46.621Z,1884
2017-05-30T05:16:47.277Z,2032
2017-05-30T05:17:47.945Z,2196
2017-05-30T05:18:48.609Z,2364
2017-05-30T05:19:49.277Z,2524
2017-05-30T05:20:49.969Z,2672
2017-05-30T05:21:50.639Z,2812
2017-05-30T05:22:51.356Z,2956
2017-05-30T05:23:52.065Z,3100
2017-05-30T05:24:52.723Z,3244
2017-05-30T05:25:53.378Z,3384
2017-05-30T05:26:54.058Z,3512
2017-05-30T05:27:54.719Z,3612
2017-05-30T05:28:55.382Z,3708
2017-05-30T05:29:56.174Z,3796
2017-05-30T05:30:56.863Z,3884
2017-05-30T05:31:57.529Z,3952
2017-05-30T05:32:58.204Z,3876
2017-05-30T05:33:58.887Z,3764
2017-05-30T05:34:59.554Z,3604
2017-05-30T05:36:00.215Z,3620
2017-05-30T05:37:00.896Z,3668
2017-05-30T05:38:01.580Z,3416
2017-05-30T05:39:02.247Z,3052
2017-05-30T05:40:02.965Z,2912
2017-05-30T05:41:03.632Z,2776
2017-05-30T05:42:04.290Z,2780
2017-05-30T05:43:04.962Z,2908
2017-05-30T05:44:05.633Z,2824
2017-05-30T05:45:06.305Z,2636
2017-05-30T05:46:06.990Z,2560
2017-05-30T05:47:07.653Z,2356
2017-05-30T05:48:08.333Z,2416
2017-05-30T05:49:09.026Z,2696
2017-05-30T05:50:09.722Z,3024
2017-05-30T05:51:10.394Z,3244
2017-05-30T05:52:11.073Z,3300
2017-05-30T05:53:11.743Z,3192
2017-05-30T05:54:12.414Z,2784
2017-05-30T05:55:13.093Z,2576
2017-05-30T05:56:13.793Z,2384
2017-05-30T05:57:14.447Z,2592
2017-05-30T05:58:15.110Z,2412
2017-05-30T05:59:15.785Z,2144
2017-05-30T06:00:16.451Z,1760
2017-05-30T06:01:17.121Z,1408
2017-05-30T06:02:17.780Z,1292
2017-05-30T06:03:18.442Z,1348
2017-05-30T06:04:19.122Z,1472
2017-05-30T06:05:19.803Z,1652
2017-05-30T06:06:20.469Z,1824
2017-05-30T06:07:21.146Z,1624
2017-05-30T06:08:21.824Z,1472
2017-05-30T06:09:22.490Z,1492
2017-05-30T06:10:23.182Z,1728
2017-05-30T06:11:23.857Z,2148
2017-05-30T06:12:24.549Z,2596
2017-05-30T06:13:25.216Z,2756
2017-05-30T06:14:25.896Z,2748
2017-05-30T06:15:26.567Z,2552
2017-05-30T06:16:27.245Z,2108
2017-05-30T06:17:27.950Z,1812
2017-05-30T06:18:28.581Z,1508
2017-05-30T06:19:29.236Z,1328
2017-05-30T06:20:29.916Z,1164
2017-05-30T06:21:30.569Z,992
2017-05-30T06:22:31.224Z,864
2017-05-30T06:23:31.883Z,808
2017-05-30T06:24:32.557Z,808
2017-05-30T06:25:33.250Z,828
2017-05-30T06:26:33.898Z,864
2017-05-30T06:27:34.567Z,980
2017-05-30T06:28:35.244Z,920
2017-05-30T06:29:35.907Z,768
2017-05-30T06:30:36.594Z,644
2017-05-30T06:31:37.267Z,656
2017-05-30T06:32:37.929Z,784
2017-05-30T06:33:38.595Z,996
2017-05-30T06:34:39.305Z,1420
2017-05-30T06:35:39.994Z,1736
2017-05-30T06:36:40.698Z,1968
2017-05-30T06:37:41.372Z,1824
2017-05-30T06:38:42.062Z,1588
2017-05-30T06:39:42.738Z,1624
2017-05-30T06:40:43.419Z,1672
2017-05-30T06:41:44.092Z,1780
2017-05-30T06:42:44.753Z,1776
2017-05-30T06:43:45.430Z,1724
2017-05-30T06:44:46.110Z,1432
2017-05-30T06:45:46.832Z,1212
2017-05-30T06:46:47.512Z,1240
2017-05-30T06:47:48.179Z,1236
2017-05-30T06:48:48.842Z,1124
2017-05-30T06:49:49.511Z,1256
2017-05-30T06:50:50.187Z,1364
2017-05-30T06:51:50.850Z,1448
2017-05-30T06:52:51.533Z,2068
2017-05-30T06:53:52.218Z,2548
2017-05-30T06:54:52.886Z,2764
2017-05-30T06:55:53.552Z,3004
2017-05-30T06:56:54.233Z,3108
2017-05-30T06:57:54.939Z,3152
2017-05-30T06:58:55.624Z,3176
2017-05-30T06:59:56.350Z,3212
2017-05-30T07:00:57.014Z,3264
2017-05-30T07:01:57.701Z,3280
2017-05-30T07:02:58.371Z,3312
2017-05-30T07:03:59.039Z,3564
2017-05-30T07:04:59.998Z,3924
2017-05-30T07:06:00.685Z,4344
2017-05-30T07:07:01.361Z,4692
2017-05-30T07:08:02.038Z,4956
2017-05-30T07:09:03.084Z,5188
2017-05-30T07:10:03.759Z,5444
2017-05-30T07:11:04.854Z,5600
2017-05-30T07:12:05.721Z,5680
2017-05-30T07:13:06.398Z,5772
2017-05-30T07:14:07.066Z,5800
2017-05-30T07:15:07.749Z,5808
2017-05-30T07:16:08.435Z,5752
2017-05-30T07:17:09.129Z,5668
2017-05-30T07:18:09.813Z,5560
2017-05-30T07:19:10.631Z,5472
2017-05-30T07:20:12.781Z,5428
2017-05-30T07:21:15.492Z,5376
2017-05-30T07:22:17.957Z,5284
2017-05-30T07:23:19.085Z,5256
2017-05-30T07:24:19.819Z,5280
2017-05-30T07:25:20.528Z,5376
2017-05-30T07:26:21.214Z,5524
2017-05-30T07:27:21.918Z,5760
2017-05-30T07:28:22.607Z,6012
2017-05-30T07:29:23.276Z,6248
2017-05-30T07:30:23.953Z,6396
2017-05-30T07:31:24.641Z,6464
2017-05-30T07:32:25.329Z,6472
2017-05-30T07:33:26.075Z,6472
2017-05-30T07:34:26.788Z,6504
2017-05-30T07:35:27.450Z,6576
2017-05-30T07:36:28.199Z,6660
2017-05-30T07:37:28.904Z,6896
2017-05-30T07:38:29.578Z,7636
2017-05-30T07:39:30.271Z,9104
2017-05-30T07:40:30.945Z,11944
2017-05-30T07:41:31.627Z,23392
2017-05-30T07:42:32.300Z,17312
2017-05-30T07:43:33.057Z,23552
2017-05-30T07:44:33.833Z,39296
2017-05-30T07:45:34.506Z,40096
2017-05-30T07:46:35.174Z,48704
2017-05-30T07:47:35.865Z,52576
2017-05-30T07:48:36.552Z,61216
2017-05-30T07:49:37.251Z,64928
2017-05-30T07:50:38.082Z,66176
2017-05-30T07:51:38.754Z,27328
2017-05-30T07:52:39.429Z,27232
2017-05-30T07:53:40.150Z,63232
2017-05-30T07:54:40.823Z,44064
2017-05-30T07:55:41.500Z,67872
2017-05-30T07:56:42.175Z,50624
2017-05-30T07:57:42.858Z,66080
2017-05-30T07:58:43.566Z,64224
2017-05-30T07:59:44.240Z,62784
2017-05-30T08:00:44.935Z,62400
2017-05-30T08:01:45.622Z,63840
2017-05-30T08:02:46.311Z,64608
2017-05-30T08:03:46.999Z,63680
2017-05-30T08:04:47.693Z,63968
2017-05-30T08:05:48.368Z,63552
2017-05-30T08:06:49.045Z,62048
2017-05-30T08:07:49.730Z,61984
2017-05-30T08:08:51.227Z,68576
2017-05-30T08:09:51.906Z,75168
2017-05-30T08:10:52.611Z,53312
2017-05-30T08:11:53.332Z,54624
2017-05-30T08:12:54.006Z,32960
2017-05-30T08:13:54.696Z,58592
2017-05-30T08:14:55.406Z,60800
2017-05-30T08:15:56.086Z,62432
2017-05-30T08:16:56.781Z,65056
2017-05-30T08:17:57.528Z,69824
2017-05-30T08:18:58.231Z,72576
2017-05-30T08:19:58.963Z,74880
2017-05-30T08:20:59.637Z,74848
2017-05-30T08:22:00.310Z,71072
2017-05-30T08:23:01.029Z,68160
2017-05-30T08:24:01.702Z,66816
2017-05-30T08:25:02.388Z,66688
2017-05-30T08:26:03.084Z,68224
2017-05-30T08:27:03.791Z,66144
2017-05-30T08:28:04.488Z,65632
2017-05-30T08:29:05.178Z,66112
2017-05-30T08:30:05.854Z,64544
2017-05-30T08:31:06.569Z,65024
2017-05-30T08:32:07.255Z,65344
2017-05-30T08:33:07.959Z,62912
2017-05-30T08:34:08.644Z,52704
2017-05-30T08:35:09.324Z,59104
2017-05-30T08:36:10.029Z,50432
2017-05-30T08:37:10.710Z,36320
2017-05-30T08:38:11.390Z,28544
2017-05-30T08:39:12.080Z,32576
2017-05-30T08:40:12.752Z,28512
2017-05-30T08:41:13.447Z,28768
2017-05-30T08:42:14.129Z,28416
2017-05-30T08:43:14.815Z,44704
2017-05-30T08:44:15.492Z,43488
2017-05-30T08:45:16.211Z,49088
2017-05-30T08:46:16.924Z,42784
2017-05-30T08:47:17.617Z,33536
2017-05-30T08:48:18.315Z,30048
2017-05-30T08:49:18.983Z,33056
2017-05-30T08:50:19.653Z,21952
2017-05-30T08:51:20.334Z,18048
2017-05-30T08:52:21.023Z,21984
2017-05-30T08:53:21.724Z,20352
2017-05-30T08:54:22.410Z,18624
2017-05-30T08:55:23.133Z,21504
2017-05-30T08:56:23.817Z,24224
2017-05-30T08:57:24.491Z,24384
2017-05-30T08:58:25.178Z,21120
2017-05-30T08:59:25.875Z,28352
2017-05-30T09:00:26.550Z,19744
2017-05-30T09:01:27.269Z,25216
2017-05-30T09:02:27.940Z,26272
2017-05-30T09:03:28.627Z,54688
2017-05-30T09:04:29.335Z,48160
2017-05-30T09:05:30.034Z,65024
2017-05-30T09:06:30.710Z,37856
2017-05-30T09:07:31.446Z,47488
2017-05-30T09:08:32.163Z,30688
2017-05-30T09:09:32.847Z,62112
2017-05-30T09:10:33.540Z,69632
2017-05-30T09:11:34.220Z,75776
2017-05-30T09:12:34.918Z,40736
2017-05-30T09:13:35.597Z,70432
2017-05-30T09:14:36.288Z,70976
2017-05-30T09:15:36.986Z,44384
2017-05-30T09:16:37.662Z,47520
2017-05-30T09:17:38.350Z,69056
2017-05-30T09:18:39.032Z,70144
2017-05-30T09:19:39.707Z,77024
2017-05-30T09:20:40.402Z,59168
2017-05-30T09:21:41.085Z,34336
2017-05-30T09:22:41.760Z,18016
2017-05-30T09:23:42.443Z,16200
2017-05-30T09:24:43.113Z,17824
2017-05-30T09:25:43.803Z,19104
2017-05-30T09:26:44.491Z,23904
2017-05-30T09:27:45.192Z,18080
2017-05-30T09:28:45.878Z,53696
2017-05-30T09:29:46.557Z,74112
2017-05-30T09:30:47.243Z,72928
2017-05-30T09:31:47.913Z,57056
2017-05-30T09:32:48.605Z,63360
2017-05-30T09:33:49.299Z,54304
2017-05-30T09:34:49.981Z,23840
2017-05-30T09:35:50.663Z,14480
2017-05-30T09:36:51.374Z,11156
2017-05-30T09:37:52.056Z,10824
2017-05-30T09:38:52.736Z,13084
2017-05-30T09:39:53.421Z,37984
2017-05-30T09:40:54.107Z,61952
2017-05-30T09:41:54.790Z,70496
2017-05-30T09:42:55.468Z,67040
2017-05-30T09:43:56.177Z,28576
2017-05-30T09:44:56.860Z,30432
2017-05-30T09:45:57.527Z,21696
2017-05-30T09:46:58.212Z,21728
2017-05-30T09:47:58.889Z,18304
2017-05-30T09:48:59.559Z,62048
2017-05-30T09:50:00.222Z,16992
2017-05-30T09:51:00.908Z,15312
2017-05-30T09:52:01.617Z,16068
2017-05-30T09:53:02.304Z,15684
2017-05-30T09:54:03.001Z,15752
2017-05-30T09:55:03.684Z,15156
2017-05-30T09:56:04.361Z,14056
2017-05-30T09:57:05.048Z,13460
2017-05-30T09:58:05.729Z,14716
2017-05-30T09:59:06.427Z,12572
2017-05-30T10:00:07.116Z,11404
2017-05-30T10:01:07.820Z,10604
2017-05-30T10:02:08.500Z,12044
2017-05-30T10:03:09.171Z,13228
2017-05-30T10:04:09.857Z,11384
2017-05-30T10:05:10.530Z,12232
2017-05-30T10:06:11.203Z,15328
2017-05-30T10:07:11.894Z,18496
2017-05-30T10:08:12.623Z,18304
2017-05-30T10:09:13.293Z,19424
2017-05-30T10:10:13.993Z,24416
2017-05-30T10:11:14.669Z,22112
2017-05-30T10:12:15.361Z,17920
2017-05-30T10:13:16.035Z,16676
2017-05-30T10:14:16.706Z,17472
2017-05-30T10:15:17.413Z,17920
2017-05-30T10:16:18.087Z,16352
2017-05-30T10:17:18.760Z,14072
2017-05-30T10:18:19.445Z,14996
2017-05-30T10:19:20.140Z,14372
2017-05-30T10:20:20.812Z,12952
2017-05-30T10:21:21.499Z,11300
2017-05-30T10:22:22.194Z,12084
2017-05-30T10:23:22.877Z,12920
2017-05-30T10:24:23.552Z,14272
2017-05-30T10:25:24.231Z,17184
2017-05-30T10:26:24.943Z,20192
2017-05-30T10:27:25.629Z,22208
2017-05-30T10:28:26.302Z,23424
2017-05-30T10:29:26.981Z,23776
2017-05-30T10:30:27.703Z,22176
2017-05-30T10:31:28.397Z,17984
2017-05-30T10:32:29.135Z,24512
2017-05-30T10:33:29.835Z,21408
2017-05-30T10:34:30.573Z,19136
2017-05-30T10:35:31.316Z,19584
2017-05-30T10:36:32.014Z,18592
2017-05-30T10:37:32.706Z,15000
2017-05-30T10:38:33.393Z,14540
2017-05-30T10:39:34.072Z,12852
2017-05-30T10:40:34.765Z,15400
2017-05-30T10:41:35.487Z,14000
2017-05-30T10:42:36.189Z,14044
2017-05-30T10:43:36.854Z,13448
2017-05-30T10:44:37.527Z,11100
2017-05-30T10:45:38.226Z,11760
2017-05-30T10:46:38.914Z,16184
2017-05-30T10:47:39.613Z,16436
2017-05-30T10:48:40.287Z,15204
2017-05-30T10:49:40.982Z,15984
2017-05-30T10:50:41.687Z,17696
2017-05-30T10:51:42.357Z,14128
2017-05-30T10:52:43.064Z,11076
2017-05-30T10:53:43.768Z,13328
2017-05-30T10:54:44.467Z,15916
2017-05-30T10:55:45.181Z,15028
2017-05-30T10:56:45.910Z,15068
2017-05-30T10:57:46.622Z,14548
2017-05-30T10:58:47.315Z,14676
2017-05-30T10:59:48.030Z,15772
2017-05-30T11:00:48.711Z,13816
2017-05-30T11:01:49.401Z,13864
2017-05-30T11:02:50.108Z,16860
2017-05-30T11:03:50.779Z,13392
2017-05-30T11:04:51.466Z,12352
2017-05-30T11:05:52.157Z,14160
2017-05-30T11:06:52.856Z,15372
2017-05-30T11:07:53.532Z,12684
2017-05-30T11:08:54.218Z,14128
2017-05-30T11:09:54.900Z,12332
2017-05-30T11:10:55.572Z,10752
2017-05-30T11:11:56.530Z,10976
2017-05-30T11:12:57.253Z,15084
2017-05-30T11:13:58.008Z,14900
2017-05-30T11:14:58.878Z,14964
2017-05-30T11:15:59.559Z,14448
2017-05-30T11:17:00.303Z,16096
2017-05-30T11:18:00.983Z,12660
2017-05-30T11:19:01.779Z,13444
2017-05-30T11:20:02.499Z,13116
2017-05-30T11:21:03.199Z,14600
2017-05-30T11:22:03.890Z,15300
2017-05-30T11:23:04.600Z,14004
2017-05-30T11:24:05.297Z,11176
2017-05-30T11:25:05.976Z,9244
2017-05-30T11:26:06.709Z,12368
2017-05-30T11:27:07.430Z,12072
2017-05-30T11:28:08.116Z,10752
2017-05-30T11:29:08.793Z,8852
2017-05-30T11:30:09.480Z,9612
2017-05-30T11:31:10.206Z,8768
2017-05-30T11:32:10.900Z,7512
2017-05-30T11:33:11.581Z,8416
2017-05-30T11:34:12.247Z,10764
2017-05-30T11:35:12.959Z,12928
2017-05-30T11:36:13.648Z,11876
2017-05-30T11:37:14.362Z,11000
2017-05-30T11:38:15.062Z,10060
2017-05-30T11:39:15.760Z,9468
2017-05-30T11:40:16.437Z,9712
2017-05-30T11:41:17.118Z,10352
2017-05-30T11:42:17.815Z,12472
2017-05-30T11:43:18.503Z,12544
2017-05-30T11:44:19.214Z,14072
2017-05-30T11:45:19.894Z,15984
2017-05-30T11:46:20.577Z,13448
2017-05-30T11:47:21.240Z,12508
2017-05-30T11:48:21.925Z,13544
2017-05-30T11:49:22.631Z,14376
2017-05-30T11:50:23.373Z,12148
2017-05-30T11:51:24.077Z,10868
2017-05-30T11:52:24.757Z,11984
2017-05-30T11:53:25.469Z,11788
2017-05-30T11:54:26.183Z,13604
2017-05-30T11:55:26.893Z,11992
2017-05-30T11:56:27.639Z,12628
2017-05-30T11:57:28.455Z,10884
2017-05-30T11:58:29.375Z,13364
2017-05-30T11:59:30.131Z,14792
2017-05-30T12:00:30.802Z,13740
2017-05-30T12:01:31.479Z,12332
2017-05-30T12:02:32.159Z,11304
2017-05-30T12:03:32.849Z,9936
2017-05-30T12:04:33.545Z,8376
2017-05-30T12:05:34.247Z,6276
2017-05-30T12:06:34.938Z,4928
2017-05-30T12:07:35.633Z,4408
2017-05-30T12:08:36.312Z,5480
2017-05-30T12:09:37.012Z,6900
2017-05-30T12:10:37.686Z,7364
2017-05-30T12:11:38.384Z,9968
2017-05-30T12:12:39.075Z,10796
2017-05-30T12:13:39.842Z,9944
2017-05-30T12:14:40.525Z,8044
2017-05-30T12:15:41.211Z,9152
2017-05-30T12:16:41.890Z,11396
2017-05-30T12:17:42.609Z,11316
2017-05-30T12:18:43.365Z,9712
2017-05-30T12:19:44.145Z,12040
2017-05-30T12:20:44.814Z,10900
2017-05-30T12:21:45.525Z,9036
2017-05-30T12:22:46.186Z,7304
2017-05-30T12:23:46.863Z,6028
2017-05-30T12:24:47.580Z,4944
2017-05-30T12:25:48.251Z,4908
2017-05-30T12:26:48.932Z,5616
2017-05-30T12:27:49.611Z,12936
2017-05-30T12:28:50.295Z,14756
2017-05-30T12:29:50.992Z,13976
2017-05-30T12:30:51.683Z,12428
2017-05-30T12:31:52.480Z,13584
2017-05-30T12:32:53.186Z,11948
2017-05-30T12:33:53.867Z,10404
2017-05-30T12:34:54.552Z,8704
2017-05-30T12:35:55.227Z,10312
2017-05-30T12:36:55.902Z,13116
2017-05-30T12:37:56.586Z,11624
2017-05-30T12:38:57.295Z,10012
2017-05-30T12:39:57.979Z,9448
2017-05-30T12:40:58.660Z,9280
2017-05-30T12:41:59.362Z,8560
2017-05-30T12:43:00.148Z,9604
2017-05-30T12:44:00.820Z,11664
2017-05-30T12:45:01.500Z,13448
2017-05-30T12:46:02.203Z,14332
2017-05-30T12:47:02.891Z,11004
2017-05-30T12:48:03.591Z,10660
2017-05-30T12:49:04.285Z,11344
2017-05-30T12:50:04.970Z,14056
2017-05-30T12:51:05.677Z,13460
2017-05-30T12:52:06.373Z,11076
2017-05-30T12:53:07.056Z,13344
2017-05-30T12:54:07.756Z,14156
2017-05-30T12:55:08.432Z,11676
2017-05-30T12:56:09.132Z,10660
2017-05-30T12:57:09.813Z,12472
2017-05-30T12:58:10.519Z,12248
2017-05-30T12:59:11.211Z,11980
2017-05-30T13:00:11.938Z,11040
2017-05-30T13:01:12.611Z,10700
2017-05-30T13:02:13.280Z,10960
2017-05-30T13:03:13.995Z,9952
2017-05-30T13:04:14.774Z,10512
2017-05-30T13:05:15.479Z,12360
2017-05-30T13:06:16.179Z,10424
2017-05-30T13:07:16.913Z,8324
2017-05-30T13:08:17.641Z,8576
2017-05-30T13:09:18.334Z,9884
2017-05-30T13:10:19.043Z,10476
2017-05-30T13:11:19.715Z,9132
2017-05-30T13:12:20.489Z,9508
2017-05-30T13:13:21.198Z,10576
2017-05-30T13:14:21.959Z,9752
2017-05-30T13:15:22.640Z,8792
2017-05-30T13:16:23.344Z,8944
2017-05-30T13:17:24.000Z,8896
2017-05-30T13:18:24.689Z,8600
2017-05-30T13:19:25.355Z,8220
2017-05-30T13:20:26.037Z,7796
2017-05-30T13:21:26.720Z,7640
2017-05-30T13:22:27.421Z,7660
2017-05-30T13:23:28.114Z,7024
2017-05-30T13:24:28.829Z,6380
2017-05-30T13:25:29.509Z,5604
2017-05-30T13:26:30.195Z,6120
2017-05-30T13:27:30.910Z,6584
2017-05-30T13:28:31.569Z,6260
2017-05-30T13:29:32.256Z,6184
2017-05-30T13:30:32.935Z,9628
2017-05-30T13:31:33.616Z,12484
2017-05-30T13:32:34.287Z,11708
2017-05-30T13:33:34.967Z,11188
2017-05-30T13:34:35.658Z,12348
2017-05-30T13:35:36.343Z,12384
2017-05-30T13:36:37.025Z,10552
2017-05-30T13:37:37.793Z,11000
2017-05-30T13:38:38.503Z,8876
2017-05-30T13:39:39.175Z,6992